createdAt,value
2022-11-16T00:01:02.649Z,52.80
2022-11-16T00:03:32.659Z,48.83
2022-11-16T00:06:03.557Z,45.27
2022-11-16T00:08:35.093Z,49.67
2022-11-16T00:11:09.351Z,45.17
2022-11-16T00:13:39.399Z,43.23
2022-11-16T00:16:16.032Z,39.87
2022-11-16T00:18:45.391Z,37.73
2022-11-16T00:21:14.037Z,42.50
2022-11-16T00:23:42.301Z,40.10
2022-11-16T00:26:13.938Z,38.27
2022-11-16T00:28:42.559Z,39.60
2022-11-16T00:31:12.523Z,47.57
2022-11-16T00:33:41.462Z,38.23
2022-11-16T00:36:13.275Z,41.63
2022-11-16T00:38:42.487Z,42.43
2022-11-16T00:41:11.688Z,41.50
2022-11-16T00:43:40.343Z,42.20
2022-11-16T00:46:10.887Z,41.97
2022-11-16T00:48:39.492Z,43.07
2022-11-16T00:51:08.149Z,42.10
2022-11-16T00:53:37.414Z,43.70
2022-11-16T00:56:07.190Z,42.03
2022-11-16T00:58:41.992Z,43.20
2022-11-16T01:01:16.151Z,45.47
2022-11-16T01:03:44.985Z,50.33
2022-11-16T01:06:16.165Z,48.30
2022-11-16T01:08:45.802Z,47.67
2022-11-16T01:11:34.069Z,44.53
2022-11-16T01:14:04.297Z,47.47
2022-11-16T01:16:34.481Z,43.90
2022-11-16T01:19:03.874Z,48.40
2022-11-16T01:21:32.511Z,45.30
2022-11-16T01:24:00.869Z,41.83
2022-11-16T01:26:29.579Z,42.40
2022-11-16T01:28:59.956Z,44.27
2022-11-16T01:31:33.678Z,43.03
2022-11-16T01:34:04.835Z,42.10
2022-11-16T01:36:35.464Z,42.23
2022-11-16T01:39:05.299Z,42.17
2022-11-16T01:41:45.216Z,37.57
2022-11-16T01:44:57.883Z,38.67
2022-11-16T01:47:28.626Z,40.00
2022-11-16T01:50:11.032Z,39.47
2022-11-16T01:52:49.105Z,40.73
2022-11-16T01:55:19.174Z,39.60
2022-11-16T01:58:03.821Z,38.73
2022-11-16T02:00:34.317Z,37.47
2022-11-16T02:03:23.164Z,39.17
2022-11-16T02:06:17.184Z,40.97
2022-11-16T02:09:26.123Z,38.03
2022-11-16T02:12:38.110Z,36.87
2022-11-16T02:15:20.939Z,39.23
2022-11-16T02:18:13.414Z,42.80
2022-11-16T02:21:11.377Z,41.50
2022-11-16T02:24:12.043Z,44.23
2022-11-16T02:26:54.326Z,38.40
2022-11-16T02:29:29.754Z,36.40
2022-11-16T02:32:06.162Z,38.60
2022-11-16T02:34:43.469Z,45.20
2022-11-16T02:37:15.855Z,37.90
2022-11-16T02:39:49.098Z,38.93
2022-11-16T02:42:29.872Z,39.17
2022-11-16T02:45:01.735Z,40.13
2022-11-16T02:47:35.433Z,42.43
2022-11-16T02:50:10.085Z,42.80
2022-11-16T02:52:40.043Z,44.30
2022-11-16T02:55:11.515Z,40.90
2022-11-16T02:57:45.311Z,40.63
2022-11-16T03:00:22.709Z,44.00
2022-11-16T03:03:17.338Z,43.67
2022-11-16T03:05:51.361Z,42.90
2022-11-16T03:08:26.490Z,42.77
2022-11-16T03:11:18.184Z,45.03
2022-11-16T03:13:48.180Z,46.83
2022-11-16T03:16:23.830Z,48.80
2022-11-16T03:18:54.855Z,48.67
2022-11-16T03:21:35.547Z,44.07
2022-11-16T03:24:04.498Z,49.20
2022-11-16T03:26:48.832Z,45.87
2022-11-16T03:29:31.194Z,47.53
2022-11-16T03:32:14.614Z,43.60
2022-11-16T03:34:52.394Z,45.50
2022-11-16T03:37:22.901Z,45.50
2022-11-16T03:39:54.649Z,48.60
2022-11-16T03:42:27.132Z,48.53
2022-11-16T03:44:57.482Z,55.83
2022-11-16T03:47:28.820Z,48.23
2022-11-16T03:49:57.200Z,43.37
2022-11-16T03:52:26.661Z,47.10
2022-11-16T03:54:55.051Z,47.83
2022-11-16T03:57:26.013Z,41.23
2022-11-16T03:59:59.898Z,46.70
2022-11-16T04:02:29.700Z,41.57
2022-11-16T04:05:17.403Z,45.40
2022-11-16T04:08:03.637Z,47.20
2022-11-16T04:11:01.035Z,44.57
2022-11-16T04:13:50.901Z,45.53
2022-11-16T04:16:37.195Z,49.50
2022-11-16T04:19:28.926Z,41.77
2022-11-16T04:22:17.817Z,42.13
2022-11-16T04:24:52.541Z,47.93
2022-11-16T04:27:42.364Z,44.77
2022-11-16T04:30:12.912Z,52.07
2022-11-16T04:32:59.367Z,47.37
2022-11-16T04:35:46.480Z,42.40
2022-11-16T04:38:15.871Z,43.70
2022-11-16T04:40:44.240Z,42.77
2022-11-16T04:43:13.411Z,50.93
2022-11-16T04:46:02.408Z,53.23
2022-11-16T04:48:38.325Z,47.03
2022-11-16T04:51:08.117Z,50.60
2022-11-16T04:53:37.212Z,48.50
2022-11-16T04:56:15.197Z,44.23
2022-11-16T04:58:44.320Z,46.33
2022-11-16T05:01:12.725Z,46.27
2022-11-16T05:03:41.131Z,45.53
2022-11-16T05:06:10.905Z,45.07
2022-11-16T05:08:39.490Z,48.73
2022-11-16T05:11:08.178Z,45.83
2022-11-16T05:13:36.634Z,45.43
2022-11-16T05:16:05.900Z,47.53
2022-11-16T05:18:34.703Z,50.03
2022-11-16T05:21:04.310Z,47.77
2022-11-16T05:23:56.566Z,51.67
2022-11-16T05:26:28.147Z,52.70
2022-11-16T05:28:56.808Z,45.70
2022-11-16T05:31:25.143Z,55.10
2022-11-16T05:33:54.330Z,48.33
2022-11-16T05:36:23.583Z,45.17
2022-11-16T05:38:56.277Z,49.83
2022-11-16T05:41:27.426Z,51.93
2022-11-16T05:43:56.150Z,49.63
2022-11-16T05:46:25.507Z,51.70
2022-11-16T05:48:56.681Z,46.00
2022-11-16T05:51:25.389Z,45.53
2022-11-16T05:53:56.852Z,42.83
2022-11-16T05:56:26.220Z,45.97
2022-11-16T05:58:56.874Z,45.27
2022-11-16T06:01:26.581Z,45.13
2022-11-16T06:03:55.560Z,48.97
2022-11-16T06:06:24.340Z,50.30
2022-11-16T06:08:53.807Z,46.47
2022-11-16T06:11:32.726Z,42.20
2022-11-16T06:14:04.787Z,43.33
2022-11-16T06:16:34.342Z,41.73
2022-11-16T06:19:06.028Z,39.27
2022-11-16T06:21:34.553Z,39.20
2022-11-16T06:24:08.996Z,46.47
2022-11-16T06:26:39.301Z,36.93
2022-11-16T06:29:07.947Z,41.90
2022-11-16T06:31:37.135Z,45.77
2022-11-16T06:34:06.120Z,40.10
2022-11-16T06:36:35.627Z,40.53
2022-11-16T06:39:04.701Z,41.30
2022-11-16T06:41:41.373Z,38.03
2022-11-16T06:44:12.013Z,39.73
2022-11-16T06:46:47.725Z,35.50
2022-11-16T06:49:16.088Z,42.03
2022-11-16T06:51:44.458Z,40.63
2022-11-16T06:54:12.843Z,38.77
2022-11-16T06:56:42.536Z,43.20
2022-11-16T06:59:11.639Z,40.63
2022-11-16T07:01:40.153Z,43.27
2022-11-16T07:04:15.941Z,35.83
2022-11-16T07:06:51.447Z,45.63
2022-11-16T07:09:20.480Z,40.87
2022-11-16T07:11:51.113Z,41.40
2022-11-16T07:14:21.017Z,44.47
2022-11-16T07:16:54.859Z,38.33
2022-11-16T07:19:26.348Z,41.43
2022-11-16T07:21:55.104Z,37.13
2022-11-16T07:24:24.396Z,41.90
2022-11-16T07:26:54.448Z,39.50
2022-11-16T07:29:26.784Z,39.50
2022-11-16T07:32:24.735Z,38.97
2022-11-16T07:35:12.705Z,42.37
2022-11-16T07:37:42.033Z,38.83
2022-11-16T07:40:11.652Z,39.97
2022-11-16T07:42:43.604Z,38.60
2022-11-16T07:45:21.262Z,36.67
2022-11-16T07:47:55.126Z,44.23
2022-11-16T07:50:49.654Z,41.67
2022-11-16T07:53:19.258Z,41.20
2022-11-16T07:55:54.497Z,38.93
2022-11-16T07:58:26.190Z,40.43
2022-11-16T08:00:55.858Z,46.23
2022-11-16T08:03:24.888Z,40.73
2022-11-16T08:06:01.216Z,41.23
2022-11-16T08:08:30.630Z,41.07
2022-11-16T08:11:01.486Z,41.60
2022-11-16T08:13:34.237Z,40.57
2022-11-16T08:16:05.103Z,38.23
2022-11-16T08:18:35.491Z,39.17
2022-11-16T08:21:05.527Z,46.67
2022-11-16T08:23:34.861Z,40.63
2022-11-16T08:26:07.470Z,39.43
2022-11-16T08:28:38.378Z,40.10
2022-11-16T08:31:10.743Z,36.83
2022-11-16T08:33:40.654Z,35.43
2022-11-16T08:36:17.180Z,34.47
2022-11-16T08:38:47.546Z,30.80
2022-11-16T08:41:17.382Z,34.07
2022-11-16T08:43:50.565Z,33.83
2022-11-16T08:46:22.812Z,32.70
2022-11-16T08:48:57.959Z,36.73
2022-11-16T08:51:27.105Z,38.17
2022-11-16T08:54:03.666Z,33.20
2022-11-16T08:56:33.703Z,31.13
2022-11-16T08:59:03.501Z,33.30
2022-11-16T09:01:33.528Z,30.90
2022-11-16T09:04:02.147Z,32.17
2022-11-16T09:06:30.835Z,31.17
2022-11-16T09:08:59.338Z,38.43
2022-11-16T09:11:27.779Z,32.53
2022-11-16T09:13:57.503Z,28.87
2022-11-16T09:16:27.961Z,27.47
2022-11-16T09:18:57.150Z,31.73
2022-11-16T09:21:27.686Z,27.93
2022-11-16T09:23:58.191Z,29.37
2022-11-16T09:26:27.077Z,30.10
2022-11-16T09:28:58.196Z,28.20
2022-11-16T09:31:29.094Z,25.90
2022-11-16T09:33:59.363Z,30.17
2022-11-16T09:36:29.562Z,29.57
2022-11-16T09:39:30.236Z,33.07
2022-11-16T09:42:06.653Z,31.00
2022-11-16T09:44:53.481Z,31.60
2022-11-16T09:47:33.753Z,29.37
2022-11-16T09:50:06.878Z,29.93
2022-11-16T09:52:41.988Z,32.07
2022-11-16T09:55:26.736Z,31.87
2022-11-16T09:58:01.132Z,37.87
2022-11-16T10:00:32.274Z,32.67
2022-11-16T10:03:08.238Z,32.73
2022-11-16T10:05:44.815Z,30.17
2022-11-16T10:08:21.198Z,31.53
2022-11-16T10:11:04.981Z,31.60
2022-11-16T10:13:51.968Z,31.60
2022-11-16T10:16:31.264Z,30.90
2022-11-16T10:19:15.874Z,26.47
2022-11-16T10:21:56.944Z,31.67
2022-11-16T10:24:44.476Z,31.73
2022-11-16T10:27:47.306Z,29.83
2022-11-16T10:30:19.409Z,28.03
2022-11-16T10:32:53.672Z,28.87
2022-11-16T10:35:32.132Z,26.03
2022-11-16T10:38:04.056Z,31.00
2022-11-16T10:40:39.894Z,32.70
2022-11-16T10:43:17.711Z,31.93
2022-11-16T10:45:52.980Z,33.00
2022-11-16T10:48:37.298Z,36.70
2022-11-16T10:51:09.254Z,31.43
2022-11-16T10:53:40.906Z,34.63
2022-11-16T10:56:18.628Z,31.63
2022-11-16T10:58:56.715Z,29.70
2022-11-16T11:01:38.112Z,30.77
2022-11-16T11:04:28.690Z,33.63
2022-11-16T11:07:00.486Z,32.37
2022-11-16T11:09:32.882Z,33.00
2022-11-16T11:12:34.009Z,34.47
2022-11-16T11:15:13.432Z,33.37
2022-11-16T11:17:44.908Z,33.80
2022-11-16T11:20:24.592Z,35.57
2022-11-16T11:22:58.355Z,36.17
2022-11-16T11:25:30.186Z,32.67
2022-11-16T11:28:08.959Z,31.93
2022-11-16T11:30:37.911Z,33.00
2022-11-16T11:33:12.416Z,28.87
2022-11-16T11:35:40.864Z,29.00
2022-11-16T11:38:17.167Z,31.13
2022-11-16T11:40:59.627Z,31.60
2022-11-16T11:43:30.167Z,31.73
2022-11-16T11:46:14.072Z,30.23
2022-11-16T11:48:54.564Z,31.70
2022-11-16T11:51:32.724Z,28.67
2022-11-16T11:54:05.916Z,29.87
2022-11-16T11:56:34.979Z,29.30
2022-11-16T11:59:05.953Z,27.67
2022-11-16T12:02:20.119Z,26.40
2022-11-16T12:05:23.896Z,28.50
2022-11-16T12:08:22.603Z,28.23
2022-11-16T12:11:01.547Z,29.77
2022-11-16T12:14:01.524Z,26.37
2022-11-16T12:16:43.618Z,25.50
2022-11-16T12:19:46.636Z,28.67
2022-11-16T12:22:37.879Z,28.03
2022-11-16T12:25:24.974Z,28.07
2022-11-16T12:28:14.938Z,29.50
2022-11-16T12:31:10.198Z,30.60
2022-11-16T12:33:49.380Z,29.07
2022-11-16T12:36:35.594Z,30.63
2022-11-16T12:39:14.811Z,30.57
2022-11-16T12:42:25.505Z,25.40
2022-11-16T12:45:26.408Z,28.87
2022-11-16T12:48:27.348Z,27.63
2022-11-16T12:51:07.861Z,29.20
2022-11-16T12:54:09.873Z,27.07
2022-11-16T12:56:51.825Z,27.37
2022-11-16T12:59:45.290Z,28.87
2022-11-16T13:02:34.977Z,28.23
2022-11-16T13:05:13.312Z,28.80
2022-11-16T13:07:47.943Z,31.60
2022-11-16T13:10:23.469Z,28.40
2022-11-16T13:13:29.777Z,30.63
2022-11-16T13:15:48.977Z,29.63
2022-11-16T13:18:24.025Z,27.50
2022-11-16T13:21:02.335Z,26.63
2022-11-16T13:23:50.716Z,27.97
2022-11-16T13:26:28.376Z,28.20
2022-11-16T13:29:06.079Z,28.90
2022-11-16T13:31:43.826Z,28.33
2022-11-16T13:34:23.794Z,25.73
2022-11-16T13:36:52.464Z,25.13
2022-11-16T13:39:42.328Z,26.73
2022-11-16T13:42:15.070Z,25.13
2022-11-16T13:44:48.769Z,24.43
2022-11-16T13:47:25.658Z,27.00
2022-11-16T13:49:59.562Z,27.10
2022-11-16T13:53:36.520Z,25.10
2022-11-16T13:55:36.360Z,30.10
2022-11-16T13:58:07.361Z,29.20
2022-11-16T14:00:40.131Z,35.53
2022-11-16T14:03:29.043Z,33.33
2022-11-16T14:05:58.789Z,45.13
2022-11-16T14:08:51.700Z,50.03
2022-11-16T14:11:36.198Z,55.87
2022-11-16T14:14:06.833Z,60.63
2022-11-16T14:16:49.061Z,54.23
2022-11-16T14:19:55.573Z,60.53
2022-11-16T14:22:52.038Z,54.80
2022-11-16T14:25:33.630Z,52.83
2022-11-16T14:28:25.401Z,52.70
2022-11-16T14:31:11.173Z,49.60
2022-11-16T14:33:40.111Z,49.13
2022-11-16T14:36:11.401Z,51.03
2022-11-16T14:38:43.344Z,48.57
2022-11-16T14:41:22.013Z,35.17
2022-11-16T14:43:54.568Z,37.77
2022-11-16T14:46:27.167Z,42.20
2022-11-16T14:48:57.700Z,43.50
2022-11-16T14:51:32.007Z,34.67
2022-11-16T14:54:06.141Z,33.97
2022-11-16T14:56:34.969Z,30.47
2022-11-16T14:59:04.760Z,33.90
2022-11-16T15:01:37.907Z,31.87
2022-11-16T15:04:10.465Z,38.70
2022-11-16T15:06:44.887Z,36.30
2022-11-16T15:09:20.905Z,37.63
2022-11-16T15:12:09.744Z,43.53
2022-11-16T15:14:45.629Z,51.03
2022-11-16T15:17:17.598Z,51.57
2022-11-16T15:19:56.321Z,57.47
2022-11-16T15:22:28.904Z,71.57
2022-11-16T15:25:01.037Z,149.47
2022-11-16T15:27:37.789Z,43.90
2022-11-16T15:30:18.123Z,63.83
2022-11-16T15:32:49.662Z,45.83
2022-11-16T15:35:23.250Z,63.00
2022-11-16T15:38:03.320Z,57.23
2022-11-16T15:40:34.976Z,51.97
2022-11-16T15:43:07.671Z,53.10
2022-11-16T15:45:38.525Z,64.23
2022-11-16T15:48:07.636Z,50.97
2022-11-16T15:50:36.040Z,51.90
2022-11-16T15:53:04.692Z,61.50
2022-11-16T15:55:39.783Z,51.10
2022-11-16T15:58:15.380Z,54.47
2022-11-16T16:00:47.701Z,95.17
2022-11-16T16:03:24.495Z,56.40
2022-11-16T16:05:54.585Z,51.03
2022-11-16T16:08:35.715Z,47.77
2022-11-16T16:11:28.821Z,50.97
2022-11-16T16:14:03.015Z,89.43
2022-11-16T16:16:36.315Z,97.97
2022-11-16T16:19:10.076Z,47.87
2022-11-16T16:21:45.514Z,210.33
2022-11-16T16:24:40.031Z,44.30
2022-11-16T16:27:17.155Z,40.43
2022-11-16T16:29:46.731Z,86.63
2022-11-16T16:32:25.482Z,37.97
2022-11-16T16:34:54.191Z,59.87
2022-11-16T16:37:23.373Z,72.60
2022-11-16T16:39:51.687Z,187.90
2022-11-16T16:42:22.133Z,34.97
2022-11-16T16:44:51.310Z,34.43
2022-11-16T16:47:21.156Z,115.10
2022-11-16T16:49:49.918Z,120.57
2022-11-16T16:52:19.210Z,44.47
2022-11-16T16:54:47.869Z,40.50
2022-11-16T16:57:17.542Z,130.40
2022-11-16T16:59:48.505Z,62.27
2022-11-16T17:02:18.247Z,28.20
2022-11-16T17:04:48.457Z,49.87
2022-11-16T17:07:17.359Z,47.07
2022-11-16T17:09:46.240Z,86.53
2022-11-16T17:12:14.677Z,38.67
2022-11-16T17:14:43.031Z,26.73
2022-11-16T17:17:12.700Z,122.30
2022-11-16T17:19:41.338Z,43.10
2022-11-16T17:22:09.667Z,49.90
2022-11-16T17:24:38.315Z,40.83
2022-11-16T17:27:06.857Z,52.10
2022-11-16T17:29:35.744Z,39.30
2022-11-16T17:32:04.500Z,32.27
2022-11-16T17:34:34.196Z,39.03
2022-11-16T17:37:02.584Z,39.83
2022-11-16T17:39:30.913Z,27.30
2022-11-16T17:41:59.261Z,25.33
2022-11-16T17:44:27.681Z,27.97
2022-11-16T17:46:56.750Z,32.70
2022-11-16T17:49:25.109Z,26.77
2022-11-16T17:51:54.827Z,33.13
2022-11-16T17:54:23.486Z,22.77
2022-11-16T17:56:52.166Z,29.27
2022-11-16T17:59:24.966Z,26.23
2022-11-16T18:01:57.664Z,25.50
2022-11-16T18:04:26.275Z,29.83
2022-11-16T18:06:56.985Z,27.53
2022-11-16T18:09:25.370Z,26.30
2022-11-16T18:11:53.774Z,23.07
2022-11-16T18:14:22.928Z,25.93
2022-11-16T18:16:51.286Z,26.03
2022-11-16T18:19:20.963Z,29.70
2022-11-16T18:21:49.876Z,29.97
2022-11-16T18:24:19.546Z,34.63
2022-11-16T18:26:47.877Z,55.03
2022-11-16T18:29:18.662Z,47.10
2022-11-16T18:31:47.361Z,56.03
2022-11-16T18:34:16.767Z,54.50
2022-11-16T18:36:46.387Z,67.17
2022-11-16T18:39:15.036Z,80.50
2022-11-16T18:41:54.483Z,82.97
2022-11-16T18:44:23.926Z,73.33
2022-11-16T18:46:52.444Z,104.83
2022-11-16T18:49:20.842Z,147.17
2022-11-16T18:51:49.519Z,168.13
2022-11-16T18:54:18.152Z,165.50
2022-11-16T18:56:47.875Z,158.60
2022-11-16T18:59:16.198Z,176.83
2022-11-16T19:01:44.843Z,335.50
2022-11-16T19:04:13.494Z,229.70
2022-11-16T19:06:41.879Z,349.83
2022-11-16T19:09:11.434Z,171.63
2022-11-16T19:11:39.860Z,411.83
2022-11-16T19:14:10.170Z,201.43
2022-11-16T19:16:43.466Z,232.50
2022-11-16T19:19:17.355Z,233.47
2022-11-16T19:21:45.978Z,313.20
2022-11-16T19:24:14.363Z,360.13
2022-11-16T19:26:42.690Z,185.70
2022-11-16T19:29:12.495Z,222.10
2022-11-16T19:31:42.709Z,449.53
2022-11-16T19:34:13.915Z,470.67
2022-11-16T19:36:42.271Z,145.17
2022-11-16T19:39:10.927Z,418.40
2022-11-16T19:41:39.266Z,237.33
2022-11-16T19:44:07.617Z,329.27
2022-11-16T19:46:37.363Z,381.67
2022-11-16T19:49:05.733Z,531.90
2022-11-16T19:51:35.295Z,284.40
2022-11-16T19:54:04.472Z,366.80
2022-11-16T19:56:32.935Z,424.27
2022-11-16T19:59:01.659Z,333.33
2022-11-16T20:01:30.248Z,59.07
2022-11-16T20:04:03.429Z,352.00
2022-11-16T20:06:34.239Z,249.97
2022-11-16T20:09:08.757Z,252.67
2022-11-16T20:11:40.231Z,144.93
2022-11-16T20:14:11.717Z,169.17
2022-11-16T20:16:43.140Z,302.70
2022-11-16T20:19:12.898Z,131.60
2022-11-16T20:21:43.589Z,131.97
2022-11-16T20:24:15.220Z,144.90
2022-11-16T20:26:46.289Z,154.43
2022-11-16T20:29:16.851Z,118.93
2022-11-16T20:31:46.125Z,130.63
2022-11-16T20:34:18.518Z,236.63
2022-11-16T20:36:50.743Z,114.47
2022-11-16T20:39:21.188Z,140.73
2022-11-16T20:41:50.234Z,89.83
2022-11-16T20:44:22.113Z,239.83
2022-11-16T20:46:52.374Z,43.30
2022-11-16T20:49:22.324Z,49.23
2022-11-16T20:51:51.347Z,81.10
2022-11-16T20:54:19.663Z,35.17
2022-11-16T20:56:49.807Z,146.40
2022-11-16T20:59:18.176Z,125.83
2022-11-16T21:01:48.859Z,75.50
2022-11-16T21:04:17.768Z,149.13
2022-11-16T21:06:47.463Z,210.73
2022-11-16T21:09:22.401Z,168.10
2022-11-16T21:12:08.352Z,94.67
2022-11-16T21:14:36.972Z,118.27
2022-11-16T21:17:05.458Z,112.53
2022-11-16T21:19:33.749Z,107.97
2022-11-16T21:22:03.764Z,121.80
2022-11-16T21:24:32.275Z,117.07
2022-11-16T21:27:00.665Z,143.30
2022-11-16T21:29:28.976Z,120.10
2022-11-16T21:31:57.589Z,151.83
2022-11-16T21:34:27.845Z,116.07
2022-11-16T21:36:56.478Z,125.50
2022-11-16T21:39:27.314Z,74.63
2022-11-16T21:41:55.884Z,102.17
2022-11-16T21:44:24.474Z,93.37
2022-11-16T21:46:53.379Z,96.90
2022-11-16T21:49:22.011Z,142.00
2022-11-16T21:51:50.307Z,166.47
2022-11-16T21:54:18.626Z,228.90
2022-11-16T21:56:48.284Z,161.93
2022-11-16T21:59:16.608Z,217.13
2022-11-16T22:02:00.666Z,99.03
2022-11-16T22:04:49.120Z,100.07
2022-11-16T22:07:33.684Z,214.60
2022-11-16T22:10:02.599Z,182.83
2022-11-16T22:12:32.235Z,143.67
2022-11-16T22:15:00.905Z,156.20
2022-11-16T22:17:29.664Z,154.17
2022-11-16T22:19:58.359Z,153.63
2022-11-16T22:22:27.045Z,76.23
2022-11-16T22:24:55.679Z,224.40
2022-11-16T22:27:24.415Z,116.63
2022-11-16T22:29:54.328Z,143.90
2022-11-16T22:32:22.647Z,246.43
2022-11-16T22:34:51.389Z,102.03
2022-11-16T22:37:20.057Z,214.90
2022-11-16T22:39:48.362Z,156.83
2022-11-16T22:42:16.965Z,123.17
2022-11-16T22:44:45.596Z,145.07
2022-11-16T22:47:15.500Z,144.70
2022-11-16T22:49:44.129Z,169.63
2022-11-16T22:52:12.800Z,186.23
2022-11-16T22:54:41.392Z,123.50
2022-11-16T22:57:09.975Z,74.53
2022-11-16T22:59:38.302Z,160.17
2022-11-16T23:02:08.464Z,65.60
2022-11-16T23:04:38.160Z,112.33
2022-11-16T23:07:06.583Z,136.33
2022-11-16T23:09:35.365Z,173.73
2022-11-16T23:12:21.732Z,176.03
2022-11-16T23:15:07.777Z,174.63
2022-11-16T23:17:36.077Z,146.17
2022-11-16T23:20:24.113Z,157.23
2022-11-16T23:23:10.050Z,204.73
2022-11-16T23:25:56.164Z,149.57
2022-11-16T23:28:24.811Z,219.73
2022-11-16T23:30:53.170Z,147.33
2022-11-16T23:33:42.182Z,229.07
2022-11-16T23:36:12.664Z,244.63
2022-11-16T23:38:41.703Z,176.67
2022-11-16T23:41:27.578Z,235.23
2022-11-16T23:43:58.901Z,194.77
2022-11-16T23:46:28.350Z,125.63
2022-11-16T23:48:56.798Z,171.53
2022-11-16T23:51:26.802Z,294.47
2022-11-16T23:53:55.947Z,196.40
2022-11-16T23:56:24.908Z,180.27
2022-11-16T23:58:58.271Z,160.80
